sensor_id;sensor_type;location;lat;lon;timestamp;temperature;humidity
15231;DHT22;32569;51.762;8.564;2023-06-22T00:01:20;21.30;99.90
15231;DHT22;32569;51.762;8.564;2023-06-22T00:03:47;21.30;99.90
15231;DHT22;32569;51.762;8.564;2023-06-22T00:06:14;21.30;99.90
15231;DHT22;32569;51.762;8.564;2023-06-22T00:08:44;21.20;99.90
15231;DHT22;32569;51.762;8.564;2023-06-22T00:11:11;21.10;99.90
15231;DHT22;32569;51.762;8.564;2023-06-22T00:13:38;21.00;99.90
15231;DHT22;32569;51.762;8.564;2023-06-22T00:16:06;21.10;99.90
15231;DHT22;32569;51.762;8.564;2023-06-22T00:18:33;21.10;99.90
15231;DHT22;32569;51.762;8.564;2023-06-22T00:21:00;21.10;99.90
15231;DHT22;32569;51.762;8.564;2023-06-22T00:23:27;21.10;99.90
15231;DHT22;32569;51.762;8.564;2023-06-22T00:25:53;21.20;99.90
15231;DHT22;32569;51.762;8.564;2023-06-22T00:28:20;21.20;99.90
15231;DHT22;32569;51.762;8.564;2023-06-22T00:30:49;21.10;99.90
15231;DHT22;32569;51.762;8.564;2023-06-22T00:33:17;21.20;99.90
15231;DHT22;32569;51.762;8.564;2023-06-22T00:35:46;21.00;99.90
15231;DHT22;32569;51.762;8.564;2023-06-22T00:38:13;21.00;99.90
15231;DHT22;32569;51.762;8.564;2023-06-22T00:40:39;21.00;99.90
15231;DHT22;32569;51.762;8.564;2023-06-22T00:43:06;20.90;99.90
15231;DHT22;32569;51.762;8.564;2023-06-22T00:45:33;20.90;99.90
15231;DHT22;32569;51.762;8.564;2023-06-22T00:48:00;20.80;99.90
15231;DHT22;32569;51.762;8.564;2023-06-22T00:50:30;20.80;99.90
15231;DHT22;32569;51.762;8.564;2023-06-22T00:53:04;20.70;99.90
15231;DHT22;32569;51.762;8.564;2023-06-22T00:55:34;20.70;99.90
15231;DHT22;32569;51.762;8.564;2023-06-22T00:58:02;20.70;99.90
15231;DHT22;32569;51.762;8.564;2023-06-22T01:00:31;20.60;99.90
15231;DHT22;32569;51.762;8.564;2023-06-22T01:02:58;20.50;99.90
15231;DHT22;32569;51.762;8.564;2023-06-22T01:05:24;20.50;99.90
15231;DHT22;32569;51.762;8.564;2023-06-22T01:08:08;20.50;99.90
15231;DHT22;32569;51.762;8.564;2023-06-22T01:10:40;20.60;99.90
15231;DHT22;32569;51.762;8.564;2023-06-22T01:13:18;20.60;99.90
15231;DHT22;32569;51.762;8.564;2023-06-22T01:15:51;20.70;99.90
15231;DHT22;32569;51.762;8.564;2023-06-22T01:18:20;20.70;99.90
15231;DHT22;32569;51.762;8.564;2023-06-22T01:20:52;20.60;99.90
15231;DHT22;32569;51.762;8.564;2023-06-22T01:23:27;20.60;99.90
15231;DHT22;32569;51.762;8.564;2023-06-22T01:26:02;20.50;99.90
15231;DHT22;32569;51.762;8.564;2023-06-22T01:28:46;20.60;99.90
15231;DHT22;32569;51.762;8.564;2023-06-22T01:31:15;20.60;99.90
15231;DHT22;32569;51.762;8.564;2023-06-22T01:33:48;20.70;99.90
15231;DHT22;32569;51.762;8.564;2023-06-22T01:36:17;20.60;99.90
15231;DHT22;32569;51.762;8.564;2023-06-22T01:38:44;20.50;99.90
15231;DHT22;32569;51.762;8.564;2023-06-22T01:41:12;20.50;99.90
15231;DHT22;32569;51.762;8.564;2023-06-22T01:43:40;20.60;99.90
15231;DHT22;32569;51.762;8.564;2023-06-22T01:46:08;20.60;99.90
15231;DHT22;32569;51.762;8.564;2023-06-22T01:48:35;20.60;99.90
15231;DHT22;32569;51.762;8.564;2023-06-22T01:51:02;20.60;99.90
15231;DHT22;32569;51.762;8.564;2023-06-22T01:53:29;20.60;99.90
15231;DHT22;32569;51.762;8.564;2023-06-22T01:55:56;20.50;99.90
15231;DHT22;32569;51.762;8.564;2023-06-22T01:58:25;20.50;99.90
15231;DHT22;32569;51.762;8.564;2023-06-22T02:00:56;20.60;99.90
15231;DHT22;32569;51.762;8.564;2023-06-22T02:03:30;20.60;99.90
15231;DHT22;32569;51.762;8.564;2023-06-22T02:06:03;20.60;99.90
15231;DHT22;32569;51.762;8.564;2023-06-22T02:08:34;20.60;99.90
15231;DHT22;32569;51.762;8.564;2023-06-22T02:11:02;20.50;99.90
15231;DHT22;32569;51.762;8.564;2023-06-22T02:13:29;20.40;99.90
15231;DHT22;32569;51.762;8.564;2023-06-22T02:15:57;20.40;99.90
15231;DHT22;32569;51.762;8.564;2023-06-22T02:18:24;20.40;99.90
15231;DHT22;32569;51.762;8.564;2023-06-22T02:20:52;20.40;99.90
15231;DHT22;32569;51.762;8.564;2023-06-22T02:23:18;20.40;99.90
15231;DHT22;32569;51.762;8.564;2023-06-22T02:25:45;20.50;99.90
15231;DHT22;32569;51.762;8.564;2023-06-22T02:28:12;20.60;99.90
15231;DHT22;32569;51.762;8.564;2023-06-22T02:30:42;20.60;99.90
15231;DHT22;32569;51.762;8.564;2023-06-22T02:33:08;20.60;99.90
15231;DHT22;32569;51.762;8.564;2023-06-22T02:35:35;20.60;99.90
15231;DHT22;32569;51.762;8.564;2023-06-22T02:38:04;20.60;99.90
15231;DHT22;32569;51.762;8.564;2023-06-22T02:40:31;20.60;99.90
15231;DHT22;32569;51.762;8.564;2023-06-22T02:42:58;20.60;99.90
15231;DHT22;32569;51.762;8.564;2023-06-22T02:45:27;20.60;99.90
15231;DHT22;32569;51.762;8.564;2023-06-22T02:47:55;20.60;99.90
15231;DHT22;32569;51.762;8.564;2023-06-22T02:50:21;20.60;99.90
15231;DHT22;32569;51.762;8.564;2023-06-22T02:52:48;20.70;99.90
15231;DHT22;32569;51.762;8.564;2023-06-22T02:55:16;20.60;99.90
15231;DHT22;32569;51.762;8.564;2023-06-22T02:57:42;20.70;99.90
15231;DHT22;32569;51.762;8.564;2023-06-22T03:00:17;20.60;99.90
15231;DHT22;32569;51.762;8.564;2023-06-22T03:02:44;20.50;99.90
15231;DHT22;32569;51.762;8.564;2023-06-22T03:05:11;20.40;99.90
15231;DHT22;32569;51.762;8.564;2023-06-22T03:07:41;20.40;99.90
15231;DHT22;32569;51.762;8.564;2023-06-22T03:10:08;20.30;99.90
15231;DHT22;32569;51.762;8.564;2023-06-22T03:12:37;20.30;99.90
15231;DHT22;32569;51.762;8.564;2023-06-22T03:15:05;20.30;99.90
15231;DHT22;32569;51.762;8.564;2023-06-22T03:17:33;20.40;99.90
15231;DHT22;32569;51.762;8.564;2023-06-22T03:19:59;20.40;99.90
15231;DHT22;32569;51.762;8.564;2023-06-22T03:22:26;20.40;99.90
15231;DHT22;32569;51.762;8.564;2023-06-22T03:24:52;20.40;99.90
15231;DHT22;32569;51.762;8.564;2023-06-22T03:27:19;20.40;99.90
15231;DHT22;32569;51.762;8.564;2023-06-22T03:29:47;20.40;99.90
15231;DHT22;32569;51.762;8.564;2023-06-22T03:32:14;20.30;99.90
15231;DHT22;32569;51.762;8.564;2023-06-22T03:34:40;20.30;99.90
15231;DHT22;32569;51.762;8.564;2023-06-22T03:37:12;20.20;99.90
15231;DHT22;32569;51.762;8.564;2023-06-22T03:39:39;20.30;99.90
15231;DHT22;32569;51.762;8.564;2023-06-22T03:42:06;20.20;99.90
15231;DHT22;32569;51.762;8.564;2023-06-22T03:44:33;20.30;99.90
15231;DHT22;32569;51.762;8.564;2023-06-22T03:47:03;20.20;99.90
15231;DHT22;32569;51.762;8.564;2023-06-22T03:49:32;20.20;99.90
15231;DHT22;32569;51.762;8.564;2023-06-22T03:51:59;20.20;99.90
15231;DHT22;32569;51.762;8.564;2023-06-22T03:54:25;20.20;99.90
15231;DHT22;32569;51.762;8.564;2023-06-22T03:56:53;20.20;99.90
15231;DHT22;32569;51.762;8.564;2023-06-22T03:59:19;20.20;99.90
15231;DHT22;32569;51.762;8.564;2023-06-22T04:01:46;20.30;99.90
15231;DHT22;32569;51.762;8.564;2023-06-22T04:04:14;20.40;99.90
15231;DHT22;32569;51.762;8.564;2023-06-22T04:06:41;20.30;99.90
15231;DHT22;32569;51.762;8.564;2023-06-22T04:09:07;20.30;99.90
15231;DHT22;32569;51.762;8.564;2023-06-22T04:11:34;20.40;99.90
15231;DHT22;32569;51.762;8.564;2023-06-22T04:14:00;20.40;99.90
15231;DHT22;32569;51.762;8.564;2023-06-22T04:16:27;20.40;99.90
15231;DHT22;32569;51.762;8.564;2023-06-22T04:18:54;20.40;99.90
15231;DHT22;32569;51.762;8.564;2023-06-22T04:21:22;20.40;99.90
15231;DHT22;32569;51.762;8.564;2023-06-22T04:23:48;20.50;99.90
15231;DHT22;32569;51.762;8.564;2023-06-22T04:26:15;20.40;99.90
15231;DHT22;32569;51.762;8.564;2023-06-22T04:28:42;20.40;99.90
15231;DHT22;32569;51.762;8.564;2023-06-22T04:31:08;20.50;99.90
15231;DHT22;32569;51.762;8.564;2023-06-22T04:33:35;20.40;99.90
15231;DHT22;32569;51.762;8.564;2023-06-22T04:36:05;20.40;99.90
15231;DHT22;32569;51.762;8.564;2023-06-22T04:38:33;20.40;99.90
15231;DHT22;32569;51.762;8.564;2023-06-22T04:41:00;20.40;99.90
15231;DHT22;32569;51.762;8.564;2023-06-22T04:43:28;20.40;99.90
15231;DHT22;32569;51.762;8.564;2023-06-22T04:45:55;20.50;99.90
15231;DHT22;32569;51.762;8.564;2023-06-22T04:48:28;20.50;99.90
15231;DHT22;32569;51.762;8.564;2023-06-22T04:50:58;20.50;99.90
15231;DHT22;32569;51.762;8.564;2023-06-22T04:53:29;20.50;99.90
15231;DHT22;32569;51.762;8.564;2023-06-22T04:55:57;20.60;99.90
15231;DHT22;32569;51.762;8.564;2023-06-22T04:58:24;20.60;99.90
15231;DHT22;32569;51.762;8.564;2023-06-22T05:00:52;20.60;99.90
15231;DHT22;32569;51.762;8.564;2023-06-22T05:03:22;20.60;99.90
15231;DHT22;32569;51.762;8.564;2023-06-22T05:05:51;20.70;99.90
15231;DHT22;32569;51.762;8.564;2023-06-22T05:08:18;20.70;99.90
15231;DHT22;32569;51.762;8.564;2023-06-22T05:10:44;20.90;99.90
15231;DHT22;32569;51.762;8.564;2023-06-22T05:13:12;20.90;99.90
15231;DHT22;32569;51.762;8.564;2023-06-22T05:15:39;21.00;99.90
15231;DHT22;32569;51.762;8.564;2023-06-22T05:18:06;21.00;99.90
15231;DHT22;32569;51.762;8.564;2023-06-22T05:20:32;21.10;99.90
15231;DHT22;32569;51.762;8.564;2023-06-22T05:23:01;21.10;99.90
15231;DHT22;32569;51.762;8.564;2023-06-22T05:25:28;21.20;99.90
15231;DHT22;32569;51.762;8.564;2023-06-22T05:27:55;21.20;99.90
15231;DHT22;32569;51.762;8.564;2023-06-22T05:30:23;21.20;99.90
15231;DHT22;32569;51.762;8.564;2023-06-22T05:32:50;21.20;99.90
15231;DHT22;32569;51.762;8.564;2023-06-22T05:35:18;21.10;99.90
15231;DHT22;32569;51.762;8.564;2023-06-22T05:37:44;21.00;99.90
15231;DHT22;32569;51.762;8.564;2023-06-22T05:40:12;21.10;99.90
15231;DHT22;32569;51.762;8.564;2023-06-22T05:42:38;21.10;99.90
15231;DHT22;32569;51.762;8.564;2023-06-22T05:45:06;21.20;99.90
15231;DHT22;32569;51.762;8.564;2023-06-22T05:47:34;21.20;99.90
15231;DHT22;32569;51.762;8.564;2023-06-22T05:50:00;21.30;99.90
15231;DHT22;32569;51.762;8.564;2023-06-22T05:52:31;21.40;99.90
15231;DHT22;32569;51.762;8.564;2023-06-22T05:54:58;21.50;99.90
15231;DHT22;32569;51.762;8.564;2023-06-22T05:57:25;21.50;99.90
15231;DHT22;32569;51.762;8.564;2023-06-22T05:59:51;21.60;99.90
15231;DHT22;32569;51.762;8.564;2023-06-22T06:02:19;21.60;99.90
15231;DHT22;32569;51.762;8.564;2023-06-22T06:04:47;21.70;99.90
15231;DHT22;32569;51.762;8.564;2023-06-22T06:07:16;21.80;99.90
15231;DHT22;32569;51.762;8.564;2023-06-22T06:09:43;21.80;99.90
15231;DHT22;32569;51.762;8.564;2023-06-22T06:12:09;21.80;99.90
15231;DHT22;32569;51.762;8.564;2023-06-22T06:14:36;21.90;99.90
15231;DHT22;32569;51.762;8.564;2023-06-22T06:17:03;22.00;99.90
15231;DHT22;32569;51.762;8.564;2023-06-22T06:19:30;21.90;99.90
15231;DHT22;32569;51.762;8.564;2023-06-22T06:21:57;21.90;99.90
15231;DHT22;32569;51.762;8.564;2023-06-22T06:24:24;21.90;99.90
15231;DHT22;32569;51.762;8.564;2023-06-22T06:26:54;21.80;99.90
15231;DHT22;32569;51.762;8.564;2023-06-22T06:29:21;21.80;99.90
15231;DHT22;32569;51.762;8.564;2023-06-22T06:31:49;21.80;99.90
15231;DHT22;32569;51.762;8.564;2023-06-22T06:34:15;21.90;99.90
15231;DHT22;32569;51.762;8.564;2023-06-22T06:36:42;21.90;99.90
15231;DHT22;32569;51.762;8.564;2023-06-22T06:39:11;22.00;99.90
15231;DHT22;32569;51.762;8.564;2023-06-22T06:41:37;22.10;99.90
15231;DHT22;32569;51.762;8.564;2023-06-22T06:44:04;22.10;99.90
15231;DHT22;32569;51.762;8.564;2023-06-22T06:46:30;22.20;99.90
15231;DHT22;32569;51.762;8.564;2023-06-22T06:48:57;22.40;99.90
15231;DHT22;32569;51.762;8.564;2023-06-22T06:51:24;22.40;99.90
15231;DHT22;32569;51.762;8.564;2023-06-22T06:53:50;22.30;99.90
15231;DHT22;32569;51.762;8.564;2023-06-22T06:56:18;22.30;99.90
15231;DHT22;32569;51.762;8.564;2023-06-22T06:58:45;22.30;99.90
15231;DHT22;32569;51.762;8.564;2023-06-22T07:01:11;22.30;99.90
15231;DHT22;32569;51.762;8.564;2023-06-22T07:03:38;22.20;99.90
15231;DHT22;32569;51.762;8.564;2023-06-22T07:06:05;22.20;99.90
15231;DHT22;32569;51.762;8.564;2023-06-22T07:08:31;22.10;99.90
15231;DHT22;32569;51.762;8.564;2023-06-22T07:10:58;22.10;99.90
15231;DHT22;32569;51.762;8.564;2023-06-22T07:13:27;22.20;99.90
15231;DHT22;32569;51.762;8.564;2023-06-22T07:15:57;22.30;99.90
15231;DHT22;32569;51.762;8.564;2023-06-22T07:18:24;22.20;99.90
15231;DHT22;32569;51.762;8.564;2023-06-22T07:20:51;22.20;99.90
15231;DHT22;32569;51.762;8.564;2023-06-22T07:23:20;22.10;99.90
15231;DHT22;32569;51.762;8.564;2023-06-22T07:25:47;22.10;99.90
15231;DHT22;32569;51.762;8.564;2023-06-22T07:28:14;22.10;99.90
15231;DHT22;32569;51.762;8.564;2023-06-22T07:30:42;22.10;99.90
15231;DHT22;32569;51.762;8.564;2023-06-22T07:33:09;22.10;99.90
15231;DHT22;32569;51.762;8.564;2023-06-22T07:35:35;22.10;99.90
15231;DHT22;32569;51.762;8.564;2023-06-22T07:38:02;22.10;99.90
15231;DHT22;32569;51.762;8.564;2023-06-22T07:40:29;22.10;99.90
15231;DHT22;32569;51.762;8.564;2023-06-22T07:42:55;22.10;99.90
15231;DHT22;32569;51.762;8.564;2023-06-22T07:45:22;22.20;99.90
15231;DHT22;32569;51.762;8.564;2023-06-22T07:47:50;22.20;99.90
15231;DHT22;32569;51.762;8.564;2023-06-22T07:50:17;22.20;99.90
15231;DHT22;32569;51.762;8.564;2023-06-22T07:52:43;22.10;99.90
15231;DHT22;32569;51.762;8.564;2023-06-22T07:55:10;22.10;99.90
15231;DHT22;32569;51.762;8.564;2023-06-22T07:57:36;22.20;99.90
15231;DHT22;32569;51.762;8.564;2023-06-22T08:00:04;22.30;99.90
15231;DHT22;32569;51.762;8.564;2023-06-22T08:02:37;22.30;99.90
15231;DHT22;32569;51.762;8.564;2023-06-22T08:05:06;22.20;99.90
15231;DHT22;32569;51.762;8.564;2023-06-22T08:07:33;22.20;99.90
15231;DHT22;32569;51.762;8.564;2023-06-22T08:10:00;22.20;99.90
15231;DHT22;32569;51.762;8.564;2023-06-22T08:12:27;22.20;99.90
15231;DHT22;32569;51.762;8.564;2023-06-22T08:14:57;22.20;99.90
15231;DHT22;32569;51.762;8.564;2023-06-22T08:17:26;22.20;99.90
15231;DHT22;32569;51.762;8.564;2023-06-22T08:19:52;22.20;99.90
15231;DHT22;32569;51.762;8.564;2023-06-22T08:22:20;22.20;99.90
15231;DHT22;32569;51.762;8.564;2023-06-22T08:24:47;22.30;99.90
15231;DHT22;32569;51.762;8.564;2023-06-22T08:27:16;22.40;99.90
15231;DHT22;32569;51.762;8.564;2023-06-22T08:29:46;22.40;99.90
15231;DHT22;32569;51.762;8.564;2023-06-22T08:32:13;22.30;99.90
15231;DHT22;32569;51.762;8.564;2023-06-22T08:34:39;22.50;99.90
15231;DHT22;32569;51.762;8.564;2023-06-22T08:37:07;22.40;99.90
15231;DHT22;32569;51.762;8.564;2023-06-22T08:39:35;22.50;99.90
15231;DHT22;32569;51.762;8.564;2023-06-22T08:42:02;22.60;99.90
15231;DHT22;32569;51.762;8.564;2023-06-22T08:44:29;22.90;99.90
15231;DHT22;32569;51.762;8.564;2023-06-22T08:46:55;23.20;99.90
15231;DHT22;32569;51.762;8.564;2023-06-22T08:49:22;23.30;99.90
15231;DHT22;32569;51.762;8.564;2023-06-22T08:51:48;23.40;99.90
15231;DHT22;32569;51.762;8.564;2023-06-22T08:54:17;23.50;99.90
15231;DHT22;32569;51.762;8.564;2023-06-22T08:56:45;23.50;99.90
15231;DHT22;32569;51.762;8.564;2023-06-22T08:59:12;23.60;99.90
15231;DHT22;32569;51.762;8.564;2023-06-22T09:01:38;23.70;99.90
15231;DHT22;32569;51.762;8.564;2023-06-22T09:04:05;23.80;99.90
15231;DHT22;32569;51.762;8.564;2023-06-22T09:06:34;23.90;99.90
15231;DHT22;32569;51.762;8.564;2023-06-22T09:09:03;23.90;99.90
15231;DHT22;32569;51.762;8.564;2023-06-22T09:11:30;23.90;99.90
15231;DHT22;32569;51.762;8.564;2023-06-22T09:13:57;23.90;99.90
15231;DHT22;32569;51.762;8.564;2023-06-22T09:16:24;23.90;99.90
15231;DHT22;32569;51.762;8.564;2023-06-22T09:18:51;24.10;99.90
15231;DHT22;32569;51.762;8.564;2023-06-22T09:21:17;24.20;99.90
15231;DHT22;32569;51.762;8.564;2023-06-22T09:23:44;24.40;99.90
15231;DHT22;32569;51.762;8.564;2023-06-22T09:26:15;24.50;99.90
15231;DHT22;32569;51.762;8.564;2023-06-22T09:28:42;24.60;99.90
15231;DHT22;32569;51.762;8.564;2023-06-22T09:31:10;24.70;99.90
15231;DHT22;32569;51.762;8.564;2023-06-22T09:33:36;24.50;99.90
15231;DHT22;32569;51.762;8.564;2023-06-22T09:36:04;24.70;99.90
15231;DHT22;32569;51.762;8.564;2023-06-22T09:38:35;24.70;99.90
15231;DHT22;32569;51.762;8.564;2023-06-22T09:41:11;24.70;99.90
15231;DHT22;32569;51.762;8.564;2023-06-22T09:43:38;24.70;99.90
15231;DHT22;32569;51.762;8.564;2023-06-22T09:46:04;24.70;99.90
15231;DHT22;32569;51.762;8.564;2023-06-22T09:48:32;24.70;99.90
15231;DHT22;32569;51.762;8.564;2023-06-22T09:50:59;24.70;99.90
15231;DHT22;32569;51.762;8.564;2023-06-22T09:53:25;24.80;99.90
15231;DHT22;32569;51.762;8.564;2023-06-22T09:55:52;24.90;99.90
15231;DHT22;32569;51.762;8.564;2023-06-22T09:58:20;24.90;99.90
15231;DHT22;32569;51.762;8.564;2023-06-22T10:00:46;25.00;99.90
15231;DHT22;32569;51.762;8.564;2023-06-22T10:03:13;25.00;99.90
15231;DHT22;32569;51.762;8.564;2023-06-22T10:05:40;24.90;99.90
15231;DHT22;32569;51.762;8.564;2023-06-22T10:08:09;25.00;99.90
15231;DHT22;32569;51.762;8.564;2023-06-22T10:10:36;25.10;99.90
15231;DHT22;32569;51.762;8.564;2023-06-22T10:13:07;25.10;99.90
15231;DHT22;32569;51.762;8.564;2023-06-22T10:15:37;25.20;99.90
15231;DHT22;32569;51.762;8.564;2023-06-22T10:18:03;25.30;99.90
15231;DHT22;32569;51.762;8.564;2023-06-22T10:20:30;25.50;99.20
15231;DHT22;32569;51.762;8.564;2023-06-22T10:22:57;25.50;99.20
15231;DHT22;32569;51.762;8.564;2023-06-22T10:25:24;25.70;99.10
15231;DHT22;32569;51.762;8.564;2023-06-22T10:27:50;25.80;99.10
15231;DHT22;32569;51.762;8.564;2023-06-22T10:30:17;26.00;99.00
15231;DHT22;32569;51.762;8.564;2023-06-22T10:32:45;26.10;98.60
15231;DHT22;32569;51.762;8.564;2023-06-22T10:35:12;26.20;98.40
15231;DHT22;32569;51.762;8.564;2023-06-22T10:37:42;26.20;96.00
15231;DHT22;32569;51.762;8.564;2023-06-22T10:40:09;26.30;96.20
15231;DHT22;32569;51.762;8.564;2023-06-22T10:42:36;26.40;95.50
15231;DHT22;32569;51.762;8.564;2023-06-22T10:45:03;26.60;95.30
15231;DHT22;32569;51.762;8.564;2023-06-22T10:47:29;26.70;95.60
15231;DHT22;32569;51.762;8.564;2023-06-22T10:49:57;26.80;95.20
15231;DHT22;32569;51.762;8.564;2023-06-22T10:52:24;26.80;95.50
15231;DHT22;32569;51.762;8.564;2023-06-22T10:54:51;26.90;95.70
15231;DHT22;32569;51.762;8.564;2023-06-22T10:57:17;27.00;95.50
15231;DHT22;32569;51.762;8.564;2023-06-22T10:59:44;26.90;94.90
15231;DHT22;32569;51.762;8.564;2023-06-22T11:02:11;26.90;94.30
15231;DHT22;32569;51.762;8.564;2023-06-22T11:04:38;26.90;95.00
15231;DHT22;32569;51.762;8.564;2023-06-22T11:07:06;26.90;94.50
15231;DHT22;32569;51.762;8.564;2023-06-22T11:09:33;26.90;94.90
15231;DHT22;32569;51.762;8.564;2023-06-22T11:11:59;26.80;94.60
15231;DHT22;32569;51.762;8.564;2023-06-22T11:14:26;26.80;94.80
15231;DHT22;32569;51.762;8.564;2023-06-22T11:16:53;26.70;94.40
15231;DHT22;32569;51.762;8.564;2023-06-22T11:19:19;26.60;94.90
15231;DHT22;32569;51.762;8.564;2023-06-22T11:21:46;26.60;94.80
15231;DHT22;32569;51.762;8.564;2023-06-22T11:24:14;26.60;95.00
15231;DHT22;32569;51.762;8.564;2023-06-22T11:26:41;26.60;94.70
15231;DHT22;32569;51.762;8.564;2023-06-22T11:29:08;26.60;95.30
15231;DHT22;32569;51.762;8.564;2023-06-22T11:31:34;26.70;94.90
15231;DHT22;32569;51.762;8.564;2023-06-22T11:34:01;26.70;95.10
15231;DHT22;32569;51.762;8.564;2023-06-22T11:36:29;26.80;95.00
15231;DHT22;32569;51.762;8.564;2023-06-22T11:38:58;26.80;94.90
15231;DHT22;32569;51.762;8.564;2023-06-22T11:41:26;26.80;94.70
15231;DHT22;32569;51.762;8.564;2023-06-22T11:43:52;26.90;95.10
15231;DHT22;32569;51.762;8.564;2023-06-22T11:46:19;27.00;94.50
15231;DHT22;32569;51.762;8.564;2023-06-22T11:48:46;27.00;94.60
15231;DHT22;32569;51.762;8.564;2023-06-22T11:51:13;27.10;94.90
15231;DHT22;32569;51.762;8.564;2023-06-22T11:53:39;27.30;94.40
15231;DHT22;32569;51.762;8.564;2023-06-22T11:56:06;27.40;94.30
15231;DHT22;32569;51.762;8.564;2023-06-22T11:58:34;27.50;94.50
15231;DHT22;32569;51.762;8.564;2023-06-22T12:01:03;27.60;94.50
15231;DHT22;32569;51.762;8.564;2023-06-22T12:03:33;27.60;94.60
15231;DHT22;32569;51.762;8.564;2023-06-22T12:06:00;27.60;94.30
15231;DHT22;32569;51.762;8.564;2023-06-22T12:08:26;27.50;94.20
15231;DHT22;32569;51.762;8.564;2023-06-22T12:10:53;27.40;94.60
15231;DHT22;32569;51.762;8.564;2023-06-22T12:13:20;27.40;94.60
15231;DHT22;32569;51.762;8.564;2023-06-22T12:15:48;27.30;94.80
15231;DHT22;32569;51.762;8.564;2023-06-22T12:18:14;27.30;94.90
15231;DHT22;32569;51.762;8.564;2023-06-22T12:20:41;27.20;94.30
15231;DHT22;32569;51.762;8.564;2023-06-22T12:23:07;27.10;94.80
15231;DHT22;32569;51.762;8.564;2023-06-22T12:25:34;27.00;95.40
15231;DHT22;32569;51.762;8.564;2023-06-22T12:28:01;26.30;99.90
15231;DHT22;32569;51.762;8.564;2023-06-22T12:30:28;25.90;99.90
15231;DHT22;32569;51.762;8.564;2023-06-22T12:32:56;25.60;99.90
15231;DHT22;32569;51.762;8.564;2023-06-22T12:35:22;25.50;99.90
15231;DHT22;32569;51.762;8.564;2023-06-22T12:37:49;25.20;99.90
15231;DHT22;32569;51.762;8.564;2023-06-22T12:40:15;25.00;99.90
15231;DHT22;32569;51.762;8.564;2023-06-22T12:42:42;24.60;99.90
15231;DHT22;32569;51.762;8.564;2023-06-22T12:45:09;24.40;99.90
15231;DHT22;32569;51.762;8.564;2023-06-22T12:47:36;24.20;99.90
15231;DHT22;32569;51.762;8.564;2023-06-22T12:50:05;23.90;99.90
15231;DHT22;32569;51.762;8.564;2023-06-22T12:52:32;23.50;99.90
15231;DHT22;32569;51.762;8.564;2023-06-22T12:54:59;23.10;99.90
15231;DHT22;32569;51.762;8.564;2023-06-22T12:57:25;22.80;99.90
15231;DHT22;32569;51.762;8.564;2023-06-22T12:59:52;22.40;99.90
15231;DHT22;32569;51.762;8.564;2023-06-22T13:02:19;22.30;99.90
15231;DHT22;32569;51.762;8.564;2023-06-22T13:04:45;22.20;99.90
15231;DHT22;32569;51.762;8.564;2023-06-22T13:07:13;22.20;99.90
15231;DHT22;32569;51.762;8.564;2023-06-22T13:09:40;22.10;99.90
15231;DHT22;32569;51.762;8.564;2023-06-22T13:12:07;22.00;99.90
15231;DHT22;32569;51.762;8.564;2023-06-22T13:14:34;22.10;99.90
15231;DHT22;32569;51.762;8.564;2023-06-22T13:17:01;22.20;99.90
15231;DHT22;32569;51.762;8.564;2023-06-22T13:19:27;22.10;99.90
15231;DHT22;32569;51.762;8.564;2023-06-22T13:21:58;22.10;99.90
15231;DHT22;32569;51.762;8.564;2023-06-22T13:24:25;22.10;99.90
15231;DHT22;32569;51.762;8.564;2023-06-22T13:26:52;22.00;99.90
15231;DHT22;32569;51.762;8.564;2023-06-22T13:29:19;21.90;99.90
15231;DHT22;32569;51.762;8.564;2023-06-22T13:31:45;22.00;99.90
15231;DHT22;32569;51.762;8.564;2023-06-22T13:34:12;22.00;99.90
15231;DHT22;32569;51.762;8.564;2023-06-22T13:36:39;21.90;99.90
15231;DHT22;32569;51.762;8.564;2023-06-22T13:39:05;21.80;99.90
15231;DHT22;32569;51.762;8.564;2023-06-22T13:41:33;21.80;99.90
15231;DHT22;32569;51.762;8.564;2023-06-22T13:44:00;21.70;99.90
15231;DHT22;32569;51.762;8.564;2023-06-22T13:46:27;21.60;99.90
15231;DHT22;32569;51.762;8.564;2023-06-22T13:48:54;21.60;99.90
15231;DHT22;32569;51.762;8.564;2023-06-22T13:51:21;21.50;99.90
15231;DHT22;32569;51.762;8.564;2023-06-22T13:53:47;21.40;99.90
15231;DHT22;32569;51.762;8.564;2023-06-22T13:56:14;21.30;99.90
15231;DHT22;32569;51.762;8.564;2023-06-22T13:58:42;21.20;99.90
15231;DHT22;32569;51.762;8.564;2023-06-22T14:01:15;21.10;99.90
15231;DHT22;32569;51.762;8.564;2023-06-22T14:03:42;21.20;99.90
15231;DHT22;32569;51.762;8.564;2023-06-22T14:06:10;21.20;99.90
15231;DHT22;32569;51.762;8.564;2023-06-22T14:08:37;21.10;99.90
15231;DHT22;32569;51.762;8.564;2023-06-22T14:11:04;21.10;99.90
15231;DHT22;32569;51.762;8.564;2023-06-22T14:13:30;21.00;99.90
15231;DHT22;32569;51.762;8.564;2023-06-22T14:15:58;21.00;99.90
15231;DHT22;32569;51.762;8.564;2023-06-22T14:18:25;21.00;99.90
15231;DHT22;32569;51.762;8.564;2023-06-22T14:20:52;20.90;99.90
15231;DHT22;32569;51.762;8.564;2023-06-22T14:23:18;21.00;99.90
15231;DHT22;32569;51.762;8.564;2023-06-22T14:25:48;20.80;99.90
15231;DHT22;32569;51.762;8.564;2023-06-22T14:28:14;20.80;99.90
15231;DHT22;32569;51.762;8.564;2023-06-22T14:30:41;20.60;99.90
15231;DHT22;32569;51.762;8.564;2023-06-22T14:33:11;20.50;99.90
15231;DHT22;32569;51.762;8.564;2023-06-22T14:35:37;20.50;99.90
15231;DHT22;32569;51.762;8.564;2023-06-22T14:38:04;20.40;99.90
15231;DHT22;32569;51.762;8.564;2023-06-22T14:40:30;20.40;99.90
15231;DHT22;32569;51.762;8.564;2023-06-22T14:42:59;20.20;99.90
15231;DHT22;32569;51.762;8.564;2023-06-22T14:45:26;20.20;99.90
15231;DHT22;32569;51.762;8.564;2023-06-22T14:47:53;20.20;99.90
15231;DHT22;32569;51.762;8.564;2023-06-22T14:50:21;20.20;99.90
15231;DHT22;32569;51.762;8.564;2023-06-22T14:52:47;20.10;99.90
15231;DHT22;32569;51.762;8.564;2023-06-22T14:55:14;20.20;99.90
15231;DHT22;32569;51.762;8.564;2023-06-22T14:57:41;20.20;99.90
15231;DHT22;32569;51.762;8.564;2023-06-22T15:00:08;20.30;99.90
15231;DHT22;32569;51.762;8.564;2023-06-22T15:02:35;20.40;99.90
15231;DHT22;32569;51.762;8.564;2023-06-22T15:05:02;20.50;99.90
15231;DHT22;32569;51.762;8.564;2023-06-22T15:07:30;20.60;99.90
15231;DHT22;32569;51.762;8.564;2023-06-22T15:09:57;20.70;99.90
15231;DHT22;32569;51.762;8.564;2023-06-22T15:12:23;20.90;99.90
15231;DHT22;32569;51.762;8.564;2023-06-22T15:14:50;21.10;99.90
15231;DHT22;32569;51.762;8.564;2023-06-22T15:17:17;21.30;99.90
15231;DHT22;32569;51.762;8.564;2023-06-22T15:19:43;21.40;99.90
15231;DHT22;32569;51.762;8.564;2023-06-22T15:22:10;21.60;99.90
15231;DHT22;32569;51.762;8.564;2023-06-22T15:24:38;21.90;99.90
15231;DHT22;32569;51.762;8.564;2023-06-22T15:27:05;22.00;99.90
15231;DHT22;32569;51.762;8.564;2023-06-22T15:29:32;22.20;99.90
15231;DHT22;32569;51.762;8.564;2023-06-22T15:32:03;22.30;99.90